createdAt,value
2022-11-16T00:07:43.458Z,12.3
2022-11-16T00:17:44.288Z,12.1
2022-11-16T00:27:45.031Z,12
2022-11-16T00:37:46.020Z,11.8
2022-11-16T00:47:46.680Z,11.8
2022-11-16T00:57:47.131Z,11.8
2022-11-16T01:07:47.392Z,11.7
2022-11-16T01:17:48.326Z,11.8
2022-11-16T01:27:49.380Z,11.7
2022-11-16T01:37:49.661Z,11.6
2022-11-16T01:47:49.842Z,11.6
2022-11-16T01:57:50.559Z,11.6
2022-11-16T02:07:50.658Z,11.5
2022-11-16T02:17:50.797Z,11.5
2022-11-16T02:27:51.536Z,11.4
2022-11-16T02:37:51.829Z,11.5
2022-11-16T02:47:52.063Z,11.5
2022-11-16T02:57:52.516Z,11.5
2022-11-16T03:07:52.733Z,11.6
2022-11-16T03:27:53.397Z,11.6
2022-11-16T03:37:53.826Z,11.6
2022-11-16T03:47:54.824Z,11.7
2022-11-16T03:57:55.634Z,11.6
2022-11-16T04:07:56.353Z,11.7
2022-11-16T04:17:57.249Z,11.6
2022-11-16T04:27:57.713Z,11.6
2022-11-16T04:37:58.161Z,11.6
2022-11-16T04:47:58.335Z,11.6
2022-11-16T04:57:58.789Z,11.5
2022-11-16T05:07:59.670Z,11.5
2022-11-16T05:18:00.271Z,11.5
2022-11-16T05:28:01.163Z,11.5
2022-11-16T05:38:02.192Z,11.4
2022-11-16T05:48:03.172Z,11.4
2022-11-16T05:58:03.908Z,11.4
2022-11-16T06:08:03.987Z,11.4
2022-11-16T06:18:04.331Z,11.3
2022-11-16T06:28:07.823Z,11.3
2022-11-16T06:38:05.612Z,11.2
2022-11-16T06:48:05.920Z,11.3
2022-11-16T06:58:06.096Z,11.3
2022-11-16T07:08:06.720Z,11.3
2022-11-16T07:18:06.927Z,11.3
2022-11-16T07:28:07.608Z,11.3
2022-11-16T07:38:08.098Z,11.5
2022-11-16T07:48:09.123Z,11.6
2022-11-16T07:58:09.633Z,11.7
2022-11-16T08:08:10.186Z,11.8
2022-11-16T08:18:10.249Z,11.5
2022-11-16T08:28:10.553Z,11.4
2022-11-16T08:38:11.075Z,11.4
2022-11-16T08:48:11.899Z,11.4
2022-11-16T08:58:11.979Z,11.4
2022-11-16T09:28:13.900Z,11.9
2022-11-16T09:48:14.933Z,12.1
2022-11-16T09:58:15.147Z,12.3
2022-11-16T10:08:16.150Z,12.3
2022-11-16T10:28:18.102Z,12.5
2022-11-16T10:38:18.404Z,12.3
2022-11-16T10:48:18.535Z,12.5
2022-11-16T10:58:19.533Z,12.8
2022-11-16T11:08:20.339Z,13.1
2022-11-16T11:18:20.848Z,12.9
2022-11-16T11:28:21.550Z,13.5
2022-11-16T11:38:22.476Z,13.4
2022-11-16T11:48:23.499Z,13.4
2022-11-16T11:58:23.615Z,13.8
2022-11-16T12:08:24.478Z,13.4
2022-11-16T12:18:25.488Z,13.4
2022-11-16T12:28:26.027Z,13.1
2022-11-16T12:38:26.894Z,13.9
2022-11-16T12:48:26.926Z,13.7
2022-11-16T12:58:27.347Z,13.5
2022-11-16T13:18:27.967Z,13.5
2022-11-16T13:28:33.267Z,13.6
2022-11-16T13:48:29.322Z,13.5
2022-11-16T14:28:30.994Z,13.4
2022-11-16T14:38:31.462Z,13.3
2022-11-16T14:48:31.587Z,13.2
2022-11-16T14:58:32.338Z,13
2022-11-16T15:08:32.690Z,13.1
2022-11-16T15:28:33.782Z,13
2022-11-16T15:58:36.492Z,12.1
2022-11-16T16:08:37.015Z,12
2022-11-16T16:08:58.902Z,12
2022-11-16T16:38:43.197Z,12
2022-11-16T16:48:44.836Z,12
2022-11-16T16:58:44.590Z,12
2022-11-16T17:18:46.438Z,11.9
2022-11-16T17:28:46.620Z,11.8
2022-11-16T17:38:47.017Z,11.7
2022-11-16T17:48:47.490Z,11.5
2022-11-16T17:58:47.820Z,11.3
2022-11-16T18:08:48.009Z,11.3
2022-11-16T18:18:48.455Z,11
2022-11-16T18:28:49.406Z,10.7
2022-11-16T18:38:49.752Z,10.6
2022-11-16T18:58:52.158Z,10.5
2022-11-16T19:08:55.503Z,10.5
2022-11-16T19:18:51.628Z,10.5
2022-11-16T19:28:51.697Z,10.5
2022-11-16T19:58:53.380Z,10.2
2022-11-16T20:08:53.727Z,10
2022-11-16T20:18:54.053Z,10
2022-11-16T20:28:54.659Z,10.1
2022-11-16T20:38:55.584Z,10
2022-11-16T20:58:56.500Z,10.1
2022-11-16T21:08:57.452Z,10.3
2022-11-16T21:18:57.615Z,10.3
2022-11-16T21:28:57.931Z,10.3
2022-11-16T21:38:58.113Z,10.2
2022-11-16T21:48:59.060Z,10.4
2022-11-16T21:58:59.995Z,10.6
2022-11-16T22:09:00.843Z,10.7
2022-11-16T22:19:01.321Z,10.9
2022-11-16T22:29:01.417Z,10.8
2022-11-16T22:39:02.386Z,10.8
2022-11-16T22:49:02.542Z,10.9
2022-11-16T22:59:03.064Z,11.1
2022-11-16T23:09:03.362Z,11
2022-11-16T23:19:04.112Z,11.2
2022-11-16T23:29:05.032Z,11.3
2022-11-16T23:39:05.789Z,11.2
2022-11-16T23:49:06.534Z,11.4
2022-11-16T23:59:07.513Z,11.5
